Time;durP1;ratioP1;P1;durP2;ratioP2;P2;SDS_P1;SDS_P2;PMS_P1;PMS_P2;Temp;Humidity;BMP_temperature;BMP_pressure;BME280_temperature;BME280_humidity;BME280_pressure;Samples;Min_cycle;Max_cycle;Signal;HPM_P1;HPM_P2
2023/01/13 00:02:17;;;;;;;0.40;0.30;;;13.00;99.90;;;;;;4930935;29;20483;-87
2023/01/13 00:05:01;;;;;;;0.50;0.30;;;13.20;99.90;;;;;;4958390;28;20480;-86
2023/01/13 00:07:31;;;;;;;0.80;0.33;;;13.00;99.90;;;;;;4967540;28;20473;-87
2023/01/13 00:10:11;;;;;;;0.50;0.50;;;13.10;99.90;;;;;;4968271;28;20557;-85
2023/01/13 00:12:52;;;;;;;0.47;0.40;;;13.10;99.90;;;;;;4965460;28;20568;-87
2023/01/13 00:15:36;;;;;;;0.40;0.40;;;12.90;99.90;;;;;;4944465;28;20488;-87
2023/01/13 00:18:36;;;;;;;0.43;0.40;;;12.80;99.90;;;;;;4939415;28;20469;-87
2023/01/13 00:21:23;;;;;;;0.40;0.30;;;12.70;99.90;;;;;;4936662;29;20457;-86
2023/01/13 00:23:54;;;;;;;0.40;0.30;;;12.60;99.90;;;;;;4952475;28;20503;-85
2023/01/13 00:26:29;;;;;;;0.40;0.30;;;12.90;99.90;;;;;;4934675;29;20490;-88
2023/01/13 00:28:57;;;;;;;0.50;0.30;;;12.70;99.90;;;;;;4945691;28;20461;-86
2023/01/13 00:31:29;;;;;;;0.80;0.70;;;12.90;99.90;;;;;;4937133;29;20511;-85
2023/01/13 00:33:57;;;;;;;0.60;0.60;;;12.70;99.90;;;;;;4931014;29;20466;-85
2023/01/13 00:36:26;;;;;;;0.40;0.40;;;12.60;99.90;;;;;;4944472;28;20580;-86
2023/01/13 00:38:56;;;;;;;1.73;0.40;;;12.60;99.90;;;;;;4945059;28;20942;-87
2023/01/13 00:41:24;;;;;;;0.60;0.53;;;12.60;99.90;;;;;;4944970;28;20468;-85
2023/01/13 00:43:52;;;;;;;0.43;0.43;;;12.50;99.90;;;;;;4949267;28;20489;-87
2023/01/13 00:46:23;;;;;;;1.53;0.40;;;12.50;99.90;;;;;;4939706;29;20481;-88
2023/01/13 00:48:53;;;;;;;1.47;0.40;;;12.50;99.90;;;;;;4956191;28;20465;-87
2023/01/13 00:51:30;;;;;;;0.70;0.50;;;12.50;99.90;;;;;;4948919;28;21064;-85
2023/01/13 00:54:00;;;;;;;0.50;0.40;;;12.60;99.90;;;;;;4943053;28;20564;-83
2023/01/13 00:56:27;;;;;;;0.50;0.50;;;12.50;99.90;;;;;;4941744;28;20584;-85
2023/01/13 00:59:09;;;;;;;0.50;0.40;;;12.40;99.90;;;;;;4931694;28;20460;-88
2023/01/13 01:01:36;;;;;;;1.27;0.67;;;12.40;99.90;;;;;;4931630;29;20473;-87
2023/01/13 01:04:03;;;;;;;1.27;0.50;;;12.40;99.90;;;;;;4940990;28;20503;-83
2023/01/13 01:06:31;;;;;;;0.60;0.40;;;12.60;99.90;;;;;;4942302;28;20495;-85
2023/01/13 01:09:01;;;;;;;0.67;0.40;;;12.70;99.90;;;;;;4931815;28;20449;-86
2023/01/13 01:11:36;;;;;;;0.50;0.50;;;12.70;99.90;;;;;;4949739;28;20465;-86
2023/01/13 01:14:11;;;;;;;0.40;0.40;;;12.50;99.90;;;;;;4946741;28;20460;-84
2023/01/13 01:16:43;;;;;;;0.50;0.40;;;12.40;99.90;;;;;;4942694;28;20500;-88
2023/01/13 01:19:11;;;;;;;0.50;0.50;;;12.60;99.90;;;;;;4950262;28;20467;-86
2023/01/13 01:21:38;;;;;;;0.60;0.50;;;12.70;99.90;;;;;;4936098;29;20476;-86
2023/01/13 01:24:08;;;;;;;0.50;0.40;;;12.60;99.60;;;;;;4938189;28;20487;-87
2023/01/13 01:26:40;;;;;;;0.60;0.33;;;12.50;99.40;;;;;;4929414;29;20481;-85
2023/01/13 01:29:19;;;;;;;0.80;0.60;;;12.40;99.30;;;;;;4909106;28;20471;-85
2023/01/13 01:31:51;;;;;;;0.57;0.43;;;12.40;99.70;;;;;;4943792;28;20848;-86
2023/01/13 01:34:34;;;;;;;0.60;0.40;;;12.30;99.90;;;;;;4933020;29;20811;-86
2023/01/13 01:37:04;;;;;;;1.37;0.40;;;12.30;99.60;;;;;;4955791;28;20968;-89
2023/01/13 01:39:33;;;;;;;0.60;0.50;;;12.20;97.80;;;;;;4948480;29;20456;-89
2023/01/13 01:44:59;;;;;;;1.03;0.80;;;12.20;96.90;;;;;;4950703;28;20516;-86
2023/01/13 01:47:40;;;;;;;1.80;0.60;;;12.10;96.90;;;;;;4953180;28;20480;-87
2023/01/13 01:50:11;;;;;;;1.07;0.60;;;12.10;97.10;;;;;;4948438;29;20464;-88
2023/01/13 01:53:13;;;;;;;2.47;0.50;;;12.00;97.10;;;;;;4953377;28;20515;-86
2023/01/13 01:55:44;;;;;;;1.93;0.60;;;11.90;96.90;;;;;;4953271;28;20470;-88
2023/01/13 01:58:50;;;;;;;2.50;0.80;;;11.70;96.90;;;;;;4948105;28;20476;-86
2023/01/13 02:01:27;;;;;;;3.23;0.60;;;11.70;97.30;;;;;;4917084;29;21106;-86
2023/01/13 02:04:09;;;;;;;3.60;0.70;;;11.60;97.00;;;;;;4952003;28;20489;-86
2023/01/13 02:06:52;;;;;;;1.07;0.60;;;11.50;97.40;;;;;;4941432;28;20489;-86
2023/01/13 02:09:39;;;;;;;0.70;0.50;;;11.50;98.00;;;;;;4921782;29;20462;-89
2023/01/13 02:12:33;;;;;;;3.20;1.13;;;11.50;97.80;;;;;;4938931;28;20634;-87
2023/01/13 02:15:15;;;;;;;1.27;0.50;;;11.50;97.90;;;;;;4939867;29;20491;-86
2023/01/13 02:18:14;;;;;;;0.60;0.60;;;11.40;98.00;;;;;;4939354;29;20484;-86
2023/01/13 02:20:47;;;;;;;1.17;0.60;;;11.50;98.50;;;;;;4936462;29;20991;-87
2023/01/13 02:27:04;;;;;;;0.87;0.53;;;11.60;99.20;;;;;;4952028;28;20590;-87
2023/01/13 02:33:15;;;;;;;0.70;0.40;;;11.60;99.60;;;;;;4955593;29;20464;-86
2023/01/13 02:35:58;;;;;;;0.97;0.60;;;11.70;99.80;;;;;;4957685;28;20467;-86
2023/01/13 02:38:57;;;;;;;1.50;0.50;;;12.00;99.20;;;;;;4960977;28;20465;-85
2023/01/13 02:44:32;;;;;;;5.40;0.60;;;11.90;98.00;;;;;;4943546;28;20496;-86
2023/01/13 02:47:11;;;;;;;0.80;0.40;;;11.70;97.80;;;;;;4937937;29;20518;-87
2023/01/13 02:49:58;;;;;;;0.80;0.50;;;11.50;98.20;;;;;;4945938;29;21983;-89
2023/01/13 02:52:33;;;;;;;1.90;0.60;;;11.40;98.40;;;;;;4967563;28;20575;-87
2023/01/13 02:55:21;;;;;;;1.67;0.50;;;11.60;97.50;;;;;;4970743;28;20484;-89
2023/01/13 02:57:57;;;;;;;1.77;0.60;;;11.50;97.30;;;;;;4938966;29;20527;-88
2023/01/13 03:00:32;;;;;;;1.27;0.40;;;11.40;97.20;;;;;;4956525;28;20473;-87
2023/01/13 03:03:02;;;;;;;2.33;0.60;;;11.50;97.20;;;;;;4943626;28;20457;-85
2023/01/13 03:05:40;;;;;;;1.57;1.23;;;11.60;96.50;;;;;;4935407;29;20826;-85
2023/01/13 03:08:18;;;;;;;0.80;0.40;;;11.70;95.90;;;;;;4952411;28;20484;-87
2023/01/13 03:10:57;;;;;;;0.80;0.57;;;11.70;95.70;;;;;;4951263;29;20468;-87
2023/01/13 03:14:00;;;;;;;0.53;0.40;;;11.90;94.60;;;;;;4939789;29;20488;-87
2023/01/13 03:16:44;;;;;;;2.50;0.73;;;11.60;94.80;;;;;;4935965;29;20630;-86
2023/01/13 03:19:42;;;;;;;1.50;0.60;;;11.70;94.50;;;;;;4952146;28;20469;-85
2023/01/13 03:22:20;;;;;;;2.63;1.40;;;11.70;94.30;;;;;;4930873;29;20465;-87
2023/01/13 03:25:07;;;;;;;3.70;0.70;;;11.50;94.70;;;;;;4954606;28;20497;-85
2023/01/13 03:27:51;;;;;;;1.70;0.70;;;11.60;94.60;;;;;;4949896;28;20477;-85
2023/01/13 03:30:31;;;;;;;2.87;1.73;;;11.40;94.60;;;;;;4955056;28;20548;-87
2023/01/13 03:33:13;;;;;;;4.27;1.23;;;11.40;95.30;;;;;;4939141;28;20496;-88
2023/01/13 03:35:44;;;;;;;3.73;0.93;;;11.70;94.30;;;;;;4931794;29;20462;-89
2023/01/13 03:38:30;;;;;;;2.87;0.80;;;11.40;94.70;;;;;;4931020;29;20538;-85
2023/01/13 03:41:09;;;;;;;2.50;0.83;;;11.70;94.40;;;;;;4936717;28;20469;-87
2023/01/13 03:46:49;;;;;;;3.07;1.00;;;11.60;94.20;;;;;;4952746;28;20531;-88
2023/01/13 03:49:21;;;;;;;4.23;1.10;;;11.60;94.30;;;;;;4934985;29;21272;-87
2023/01/13 03:51:57;;;;;;;6.83;1.83;;;11.40;94.70;;;;;;4950053;28;20826;-85
2023/01/13 03:54:29;;;;;;;3.93;0.90;;;11.60;95.00;;;;;;4932333;29;20457;-86
2023/01/13 03:57:08;;;;;;;5.57;1.43;;;11.70;94.60;;;;;;4949657;28;20492;-86
2023/01/13 03:59:44;;;;;;;4.40;1.03;;;11.80;94.30;;;;;;4961826;28;21711;-88
2023/01/13 04:02:23;;;;;;;5.43;1.20;;;11.70;94.20;;;;;;4944063;28;20504;-86
2023/01/13 04:05:14;;;;;;;2.07;0.70;;;11.50;94.70;;;;;;4949900;28;21188;-84
2023/01/13 04:08:18;;;;;;;3.70;1.47;;;11.60;94.90;;;;;;4933330;29;20533;-84
2023/01/13 04:11:05;;;;;;;3.07;1.23;;;11.60;94.20;;;;;;4933144;29;20446;-90
2023/01/13 04:13:41;;;;;;;4.70;1.23;;;11.60;94.50;;;;;;4952388;29;21014;-88
2023/01/13 04:16:20;;;;;;;3.47;0.93;;;11.50;94.60;;;;;;4952896;28;20993;-86
2023/01/13 04:18:49;;;;;;;3.57;1.23;;;11.50;94.70;;;;;;4938933;29;20473;-86
2023/01/13 04:21:21;;;;;;;2.33;1.63;;;11.50;95.00;;;;;;4953494;28;20479;-88
2023/01/13 04:23:55;;;;;;;9.43;2.03;;;11.40;94.90;;;;;;4943319;28;20496;-86
2023/01/13 04:26:25;;;;;;;6.20;2.50;;;11.20;95.30;;;;;;4942123;29;20485;-84
2023/01/13 04:28:54;;;;;;;4.17;1.23;;;11.30;95.70;;;;;;4935880;29;20537;-85
2023/01/13 04:31:23;;;;;;;5.50;1.47;;;11.40;95.40;;;;;;4961056;28;20560;-89
2023/01/13 04:33:51;;;;;;;8.93;2.03;;;11.30;95.30;;;;;;4966821;28;20457;-91
2023/01/13 04:36:26;;;;;;;8.43;1.80;;;11.20;95.60;;;;;;4950982;28;20501;-92
2023/01/13 04:38:56;;;;;;;5.33;1.77;;;11.40;95.40;;;;;;4944864;29;20520;-88
2023/01/13 04:41:56;;;;;;;5.10;1.73;;;11.30;95.30;;;;;;4937546;28;20555;-87
2023/01/13 04:44:22;;;;;;;9.20;1.87;;;11.10;95.70;;;;;;4946864;28;20469;-88
2023/01/13 04:46:52;;;;;;;6.30;1.63;;;11.20;95.90;;;;;;4933654;29;20487;-89
2023/01/13 04:49:26;;;;;;;5.80;1.20;;;11.30;95.60;;;;;;4934877;28;21765;-88
2023/01/13 04:51:58;;;;;;;5.47;1.83;;;11.30;95.60;;;;;;4926957;28;20476;-88
2023/01/13 04:54:31;;;;;;;5.10;1.37;;;11.30;95.60;;;;;;4913657;29;20501;-89
2023/01/13 04:56:59;;;;;;;5.13;1.37;;;11.10;95.70;;;;;;4934624;28;20493;-89
2023/01/13 04:59:28;;;;;;;4.57;1.70;;;10.80;96.10;;;;;;4928944;29;20557;-90
2023/01/13 05:02:07;;;;;;;7.47;1.63;;;11.00;96.40;;;;;;4936711;28;20449;-89
2023/01/13 05:04:37;;;;;;;9.57;1.93;;;11.00;96.40;;;;;;4954618;28;20489;-86
2023/01/13 05:07:06;;;;;;;9.67;2.27;;;11.10;96.10;;;;;;4931686;29;20473;-91
2023/01/13 05:09:35;;;;;;;5.97;2.03;;;10.90;96.10;;;;;;4952105;28;21205;-88
2023/01/13 05:17:37;;;;;;;4.47;1.90;;;10.90;96.10;;;;;;4947372;28;20575;-86
2023/01/13 05:20:08;;;;;;;14.83;2.67;;;10.80;96.80;;;;;;4951828;28;20467;-85
2023/01/13 05:25:25;;;;;;;5.40;1.83;;;11.10;95.90;;;;;;4948704;28;20492;-85
2023/01/13 05:27:55;;;;;;;10.93;2.43;;;11.00;95.80;;;;;;4934168;29;20489;-89
2023/01/13 05:30:26;;;;;;;15.33;2.50;;;11.10;95.70;;;;;;4950992;28;20519;-88
2023/01/13 05:32:54;;;;;;;9.83;1.70;;;10.90;95.70;;;;;;4936118;29;20497;-89
2023/01/13 05:35:25;;;;;;;9.77;3.80;;;10.80;96.20;;;;;;4934472;29;20465;-88
2023/01/13 05:37:55;;;;;;;3.70;1.97;;;10.90;96.20;;;;;;4947270;28;20494;-85
2023/01/13 05:43:23;;;;;;;9.70;2.03;;;10.90;96.00;;;;;;4948584;29;20526;-89
2023/01/13 05:45:52;;;;;;;5.17;2.67;;;10.70;96.20;;;;;;4951294;28;20619;-87
2023/01/13 05:48:21;;;;;;;6.50;1.63;;;10.60;96.50;;;;;;4933609;29;20539;-88
2023/01/13 05:50:58;;;;;;;6.63;1.53;;;10.60;96.70;;;;;;4953433;28;20561;-88
2023/01/13 05:53:25;;;;;;;5.93;1.20;;;10.70;96.50;;;;;;4937629;29;20471;-84
2023/01/13 05:55:55;;;;;;;5.40;1.67;;;10.70;96.50;;;;;;4940176;28;20504;-88
2023/01/13 05:58:30;;;;;;;5.47;1.70;;;10.70;96.40;;;;;;4949376;28;20456;-86
2023/01/13 06:01:02;;;;;;;3.93;1.20;;;10.70;96.50;;;;;;4934527;29;20997;-86
2023/01/13 06:03:35;;;;;;;4.80;1.50;;;10.80;96.40;;;;;;4956908;28;20552;-90
2023/01/13 06:06:11;;;;;;;4.40;1.60;;;10.70;96.40;;;;;;4959596;28;20496;-86
2023/01/13 06:08:38;;;;;;;3.30;1.70;;;10.70;96.40;;;;;;4948836;28;20500;-87
2023/01/13 06:11:07;;;;;;;6.33;1.53;;;10.60;96.60;;;;;;4929072;29;21011;-89
2023/01/13 06:13:38;;;;;;;4.90;1.30;;;10.50;96.80;;;;;;4932567;29;20466;-85
2023/01/13 06:16:08;;;;;;;3.73;1.13;;;10.50;96.90;;;;;;4939585;28;20476;-92
2023/01/13 06:18:38;;;;;;;2.93;1.30;;;10.50;97.10;;;;;;4959605;28;20472;-89
2023/01/13 06:21:16;;;;;;;3.63;1.70;;;10.50;97.10;;;;;;4938108;29;20947;-88
2023/01/13 06:23:51;;;;;;;3.43;1.20;;;10.50;97.10;;;;;;4950194;28;20839;-86
2023/01/13 06:26:26;;;;;;;4.40;0.87;;;10.60;96.80;;;;;;4934038;29;20575;-85
2023/01/13 06:29:05;;;;;;;7.20;1.03;;;10.60;96.90;;;;;;4936043;28;20457;-86
2023/01/13 06:31:41;;;;;;;4.33;1.30;;;10.60;97.00;;;;;;4935952;29;20442;-93
2023/01/13 06:34:14;;;;;;;4.93;1.30;;;10.50;96.90;;;;;;4953871;28;20505;-91
2023/01/13 06:36:58;;;;;;;3.90;1.30;;;10.50;97.00;;;;;;4957921;28;20504;-92
2023/01/13 06:39:31;;;;;;;1.73;1.23;;;10.70;97.10;;;;;;4957307;28;20529;-89
2023/01/13 06:44:51;;;;;;;5.80;1.40;;;10.70;97.10;;;;;;4962564;28;20491;-88
2023/01/13 06:47:23;;;;;;;3.87;1.43;;;10.60;97.00;;;;;;4953787;28;20501;-88
2023/01/13 06:49:54;;;;;;;3.63;1.10;;;10.70;97.10;;;;;;4941035;28;21057;-85
2023/01/13 06:52:33;;;;;;;5.20;1.63;;;10.70;97.00;;;;;;4953095;28;20594;-90
2023/01/13 06:55:00;;;;;;;3.90;1.00;;;10.60;96.90;;;;;;4935502;28;20532;-88
2023/01/13 06:57:27;;;;;;;5.60;1.37;;;10.90;96.50;;;;;;4935412;29;20486;-90
2023/01/13 07:00:06;;;;;;;5.40;1.23;;;11.00;95.90;;;;;;4932879;29;20458;-90
2023/01/13 07:02:47;;;;;;;3.17;1.20;;;11.00;95.60;;;;;;4936366;28;20467;-91
2023/01/13 07:05:25;;;;;;;1.90;0.90;;;10.90;95.70;;;;;;4940322;28;20485;-87
2023/01/13 07:08:05;;;;;;;4.20;1.40;;;10.80;95.90;;;;;;4941883;29;20508;-90
2023/01/13 07:10:53;;;;;;;5.23;0.90;;;10.60;96.10;;;;;;4947950;29;20483;-88
2023/01/13 07:16:22;;;;;;;2.30;0.97;;;10.60;96.50;;;;;;4949354;28;20487;-87
2023/01/13 07:19:29;;;;;;;3.17;1.10;;;10.50;96.60;;;;;;4938015;28;20488;-85
2023/01/13 07:21:58;;;;;;;4.57;0.87;;;10.50;96.70;;;;;;4957510;28;20480;-89
2023/01/13 07:24:29;;;;;;;3.87;1.00;;;10.60;96.90;;;;;;4932242;29;20465;-87
2023/01/13 07:26:59;;;;;;;2.10;0.57;;;10.80;96.50;;;;;;4955960;28;20507;-89
2023/01/13 07:29:26;;;;;;;2.37;0.70;;;10.70;96.60;;;;;;4944526;28;20476;-86
2023/01/13 07:31:56;;;;;;;3.77;1.33;;;10.80;96.50;;;;;;4945939;28;20580;-90
2023/01/13 07:34:34;;;;;;;3.73;1.07;;;10.70;96.40;;;;;;4949646;28;20992;-88
2023/01/13 07:37:12;;;;;;;1.90;1.27;;;10.90;96.20;;;;;;4950627;28;20491;-85
2023/01/13 07:39:47;;;;;;;2.63;0.80;;;10.90;95.90;;;;;;4969853;28;20495;-90
2023/01/13 07:45:12;;;;;;;4.00;1.03;;;10.80;95.70;;;;;;4944522;28;20472;-87
2023/01/13 07:47:51;;;;;;;5.27;1.10;;;10.80;95.60;;;;;;4928583;28;20493;-88
2023/01/13 07:50:20;;;;;;;3.10;0.93;;;10.70;95.40;;;;;;4951067;28;20489;-87
2023/01/13 07:53:09;;;;;;;0.80;0.60;;;10.70;95.80;;;;;;4935391;28;20536;-88
2023/01/13 07:55:58;;;;;;;3.23;1.87;;;10.70;96.00;;;;;;4942528;28;20474;-89
2023/01/13 07:58:29;;;;;;;1.63;0.77;;;10.60;96.10;;;;;;4945933;28;20503;-88
2023/01/13 08:00:56;;;;;;;2.90;1.17;;;10.60;96.40;;;;;;4946789;28;20471;-86
2023/01/13 08:03:38;;;;;;;4.70;0.80;;;10.40;96.50;;;;;;4945669;28;20493;-86
2023/01/13 08:06:21;;;;;;;2.97;0.80;;;10.30;97.00;;;;;;4933271;28;20579;-88
2023/01/13 08:08:48;;;;;;;2.30;0.90;;;10.30;97.20;;;;;;4946111;28;20584;-87
2023/01/13 08:11:33;;;;;;;2.73;1.47;;;10.40;97.00;;;;;;4936931;29;20545;-86
2023/01/13 08:14:11;;;;;;;1.23;0.90;;;10.30;97.20;;;;;;4940392;28;20456;-84
2023/01/13 08:16:53;;;;;;;2.10;1.00;;;10.40;97.20;;;;;;4930231;28;20493;-86
2023/01/13 08:22:37;;;;;;;6.60;1.83;;;10.50;97.60;;;;;;4949645;28;20444;-86
2023/01/13 08:25:20;;;;;;;3.47;0.90;;;10.50;97.50;;;;;;4936367;28;20536;-88
2023/01/13 08:28:05;;;;;;;1.67;0.87;;;10.60;97.60;;;;;;4947910;28;20480;-90
2023/01/13 08:30:44;;;;;;;2.43;0.90;;;10.60;97.20;;;;;;4933103;29;20458;-89
2023/01/13 08:33:21;;;;;;;2.57;0.77;;;10.80;97.20;;;;;;4932886;28;20492;-86
2023/01/13 08:35:52;;;;;;;3.93;1.10;;;10.80;97.00;;;;;;4931748;28;20843;-86
2023/01/13 08:38:22;;;;;;;4.20;1.50;;;10.90;96.80;;;;;;4934312;28;20471;-85
2023/01/13 08:40:52;;;;;;;7.13;1.03;;;10.70;96.80;;;;;;4946413;28;20473;-87
2023/01/13 08:43:35;;;;;;;4.63;1.60;;;10.70;97.20;;;;;;4931559;28;20492;-87
2023/01/13 08:46:06;;;;;;;2.00;0.90;;;10.90;96.70;;;;;;4938428;28;20484;-84
2023/01/13 08:48:33;;;;;;;5.87;2.37;;;10.80;96.70;;;;;;4949195;28;21358;-85
2023/01/13 08:51:05;;;;;;;6.53;1.70;;;11.00;96.50;;;;;;4948622;28;20523;-84
2023/01/13 08:53:37;;;;;;;3.30;1.43;;;11.00;96.10;;;;;;4939351;29;20472;-87
2023/01/13 08:56:17;;;;;;;2.73;1.57;;;10.90;96.30;;;;;;4937871;28;20487;-87
2023/01/13 08:58:49;;;;;;;5.20;1.67;;;10.80;96.20;;;;;;4950956;28;20471;-88
2023/01/13 09:01:32;;;;;;;5.40;1.80;;;10.80;96.10;;;;;;4955297;28;20463;-86
2023/01/13 09:04:04;;;;;;;4.90;1.90;;;10.70;96.10;;;;;;4956462;28;20535;-92
2023/01/13 09:06:38;;;;;;;12.10;1.93;;;10.70;96.70;;;;;;4968243;28;20492;-89
2023/01/13 09:09:12;;;;;;;6.77;2.30;;;10.90;96.10;;;;;;4971594;28;20441;-91
2023/01/13 09:14:40;;;;;;;6.17;2.00;;;10.80;95.50;;;;;;4956709;28;20580;-90
2023/01/13 09:17:19;;;;;;;8.60;1.90;;;10.70;95.80;;;;;;4934857;29;21009;-90
2023/01/13 09:19:53;;;;;;;3.77;1.53;;;11.00;95.80;;;;;;4932575;29;20580;-88
2023/01/13 09:22:25;;;;;;;8.87;2.30;;;11.10;95.10;;;;;;4956415;28;20548;-89
2023/01/13 09:24:59;;;;;;;11.30;2.30;;;11.10;95.00;;;;;;4952253;28;20796;-90
2023/01/13 09:27:32;;;;;;;7.13;1.70;;;11.00;94.80;;;;;;4956742;28;20555;-90
2023/01/13 09:29:59;;;;;;;5.87;1.60;;;10.90;94.90;;;;;;4949070;28;21487;-89
2023/01/13 09:32:26;;;;;;;6.23;1.70;;;10.90;94.80;;;;;;4950224;28;20457;-88
2023/01/13 09:34:59;;;;;;;5.67;1.53;;;10.90;94.60;;;;;;4935163;28;20459;-85
2023/01/13 09:37:33;;;;;;;7.30;2.40;;;11.30;94.30;;;;;;4953499;28;20480;-89
2023/01/13 09:40:05;;;;;;;4.30;2.83;;;11.40;93.40;;;;;;4950276;29;20480;-88
2023/01/13 09:45:50;;;;;;;7.80;2.90;;;11.20;94.10;;;;;;4947586;28;20465;-87
2023/01/13 09:49:14;;;;;;;4.80;1.80;;;11.20;93.70;;;;;;4941820;29;20891;-88
2023/01/13 09:51:44;;;;;;;7.47;1.90;;;11.20;93.90;;;;;;4951271;28;20667;-87
2023/01/13 09:54:31;;;;;;;6.60;2.07;;;11.40;93.80;;;;;;4956253;28;20464;-87
2023/01/13 09:57:09;;;;;;;7.50;2.60;;;12.20;92.90;;;;;;4956764;28;20477;-89
2023/01/13 09:59:41;;;;;;;5.90;1.30;;;12.60;91.00;;;;;;4942390;29;20629;-88
2023/01/13 10:02:28;;;;;;;4.00;1.70;;;12.10;90.90;;;;;;4951537;28;20500;-88
2023/01/13 10:05:32;;;;;;;8.90;2.97;;;11.90;91.40;;;;;;4956165;28;20962;-86
2023/01/13 10:08:13;;;;;;;6.90;2.20;;;12.40;91.90;;;;;;4959203;28;20527;-89
2023/01/13 10:10:54;;;;;;;14.83;3.80;;;12.20;90.90;;;;;;4955200;28;20473;-88
2023/01/13 10:13:24;;;;;;;12.33;4.27;;;12.00;91.70;;;;;;4940515;28;20461;-86
2023/01/13 10:15:59;;;;;;;7.00;2.13;;;11.90;91.70;;;;;;4954543;28;20491;-88
2023/01/13 10:19:26;;;;;;;;;;;;;;;;;;;;;
2023/01/13 10:29:29;;;;;;;6.63;2.00;;;11.90;91.90;;;;;;4898852;29;20456;-87
2023/01/13 10:35:35;;;;;;;5.60;1.23;;;11.90;91.90;;;;;;4888870;29;20467;-87
2023/01/13 10:38:25;;;;;;;9.13;3.60;;;11.80;91.60;;;;;;4872971;29;20499;-87
2023/01/13 10:41:17;;;;;;;6.20;2.10;;;11.70;92.10;;;;;;4877246;29;20467;-87
2023/01/13 10:44:21;;;;;;;12.97;2.20;;;11.50;92.20;;;;;;4885449;29;20869;-87
2023/01/13 10:46:56;;;;;;;9.77;2.03;;;11.90;92.10;;;;;;4883550;29;20508;-88
2023/01/13 10:50:09;;;;;;;8.53;1.97;;;11.90;91.60;;;;;;4895156;29;20508;-86
2023/01/13 10:53:18;;;;;;;8.07;2.10;;;11.60;91.70;;;;;;4882192;29;20463;-88
2023/01/13 10:56:13;;;;;;;8.13;2.20;;;11.80;91.90;;;;;;4877267;29;20475;-87
2023/01/13 10:58:45;;;;;;;7.53;2.40;;;11.70;92.00;;;;;;4881800;29;20476;-86
2023/01/13 11:01:35;;;;;;;5.90;2.33;;;11.70;91.90;;;;;;4926275;29;20461;-87
2023/01/13 11:04:29;;;;;;;6.33;2.13;;;11.70;92.10;;;;;;4950335;29;20469;-84
2023/01/13 11:09:26;;;;;;;5.40;2.20;;;11.90;91.40;;;;;;4977343;28;20488;-87
2023/01/13 11:11:56;;;;;;;9.30;3.40;;;11.80;91.70;;;;;;4973464;28;20999;-87
2023/01/13 11:14:38;;;;;;;12.97;2.33;;;11.70;91.70;;;;;;4976412;28;20464;-88
2023/01/13 11:17:14;;;;;;;6.80;2.13;;;11.70;92.00;;;;;;4975709;28;20489;-87
2023/01/13 11:19:56;;;;;;;10.93;2.37;;;11.70;91.80;;;;;;4962961;28;22472;-86
2023/01/13 11:22:46;;;;;;;12.97;4.10;;;11.60;92.00;;;;;;4978813;28;20455;-90
2023/01/13 11:25:41;;;;;;;10.10;3.03;;;11.60;92.00;;;;;;5033963;23;20503;-87
2023/01/13 11:29:01;;;;;;;6.00;2.13;;;11.70;91.90;;;;;;4981042;28;20507;-88
2023/01/13 11:31:35;;;;;;;7.43;2.20;;;11.60;91.80;;;;;;4936366;28;20463;-86
2023/01/13 11:34:34;;;;;;;11.27;2.00;;;11.70;91.60;;;;;;4978106;28;20510;-87
2023/01/13 11:37:22;;;;;;;8.70;2.17;;;11.70;91.30;;;;;;4992171;28;21079;-86
2023/01/13 11:40:14;;;;;;;8.87;2.33;;;11.70;91.20;;;;;;4982125;28;20491;-90
2023/01/13 11:42:49;;;;;;;8.93;2.30;;;11.70;91.20;;;;;;4982385;28;20523;-83
2023/01/13 11:45:21;;;;;;;10.07;2.40;;;11.80;91.30;;;;;;4976369;28;20451;-89
2023/01/13 11:47:53;;;;;;;7.63;2.27;;;11.70;90.90;;;;;;4970520;28;20488;-89
2023/01/13 11:50:39;;;;;;;6.47;2.37;;;11.80;90.80;;;;;;4958812;28;20467;-87
2023/01/13 11:53:53;;;;;;;8.23;2.57;;;11.80;90.70;;;;;;4976974;28;20451;-88
2023/01/13 11:56:51;;;;;;;5.07;1.70;;;11.80;90.80;;;;;;4956669;28;20476;-87
2023/01/13 11:59:53;;;;;;;8.23;2.37;;;11.80;90.50;;;;;;4962541;28;20455;-90
2023/01/13 12:03:00;;;;;;;10.97;3.03;;;11.70;90.40;;;;;;4990082;28;20484;-90
2023/01/13 12:05:47;;;;;;;4.57;1.90;;;11.70;90.40;;;;;;4964753;28;20466;-87
2023/01/13 12:08:18;;;;;;;14.37;2.43;;;11.70;90.50;;;;;;4984344;28;21017;-86
2023/01/13 12:11:03;;;;;;;8.23;2.07;;;11.80;90.20;;;;;;4984830;28;20546;-86
2023/01/13 12:13:46;;;;;;;5.60;3.07;;;11.70;90.30;;;;;;4965167;28;20472;-88
2023/01/13 12:16:20;;;;;;;8.33;2.17;;;11.70;90.20;;;;;;4965525;28;20483;-89
2023/01/13 12:19:19;;;;;;;9.27;1.97;;;11.80;90.20;;;;;;4963192;28;20473;-87
2023/01/13 12:22:37;;;;;;;3.47;1.43;;;11.80;89.90;;;;;;4970214;28;21282;-85
2023/01/13 12:25:43;;;;;;;4.87;2.07;;;11.80;90.10;;;;;;4976680;28;20464;-86
2023/01/13 12:28:44;;;;;;;8.53;2.03;;;12.00;90.00;;;;;;4992966;28;20490;-89
2023/01/13 12:31:23;;;;;;;;;;;;;;;;;;;;;
2023/01/13 12:34:26;;;;;;;6.87;1.87;;;12.00;90.00;;;;;;4977774;28;20452;-83
2023/01/13 12:37:08;;;;;;;8.90;2.60;;;11.90;90.20;;;;;;4958406;28;20478;-86
2023/01/13 12:39:54;;;;;;;3.37;1.97;;;11.80;90.40;;;;;;4981320;28;20483;-89
2023/01/13 12:46:18;;;;;;;9.33;2.00;;;12.10;91.00;;;;;;5022242;28;20430;-89
2023/01/13 12:49:06;;;;;;;;;;;;;;;;;;;;;
2023/01/13 12:51:51;;;;;;;3.97;2.00;;;11.80;91.90;;;;;;5018222;28;20470;-89
2023/01/13 12:54:41;;;;;;;3.67;1.70;;;11.90;92.10;;;;;;5000918;28;20492;-88
2023/01/13 12:57:15;;;;;;;8.93;2.50;;;11.80;92.60;;;;;;5012447;28;20476;-87
2023/01/13 13:00:03;;;;;;;6.73;1.67;;;11.80;92.80;;;;;;5016898;28;20474;-91
2023/01/13 13:02:40;;;;;;;5.90;1.90;;;11.60;93.40;;;;;;5028268;28;20458;-90
2023/01/13 13:05:14;;;;;;;7.93;1.60;;;11.50;94.00;;;;;;5017028;28;20442;-89
2023/01/13 13:08:10;;;;;;;4.20;1.90;;;11.70;94.40;;;;;;5027294;28;20501;-91
2023/01/13 13:14:04;;;;;;;4.77;1.90;;;11.50;95.60;;;;;;5017708;28;20518;-89
2023/01/13 13:27:24;;;;;;;5.90;2.07;;;10.90;99.20;;;;;;5016268;28;20542;-90
2023/01/13 13:30:30;;;;;;;8.07;2.17;;;10.80;99.60;;;;;;5005720;28;20486;-88
2023/01/13 13:33:14;;;;;;;4.70;2.57;;;10.70;99.90;;;;;;4995736;28;21162;-88
2023/01/13 13:36:03;;;;;;;8.13;2.47;;;10.70;99.90;;;;;;5003347;28;20549;-88
2023/01/13 13:47:21;;;;;;;6.63;1.77;;;10.40;99.90;;;;;;5004386;28;20973;-86
2023/01/13 13:49:55;;;;;;;7.67;2.30;;;10.30;99.90;;;;;;4980560;28;20442;-86
2023/01/13 13:52:28;;;;;;;7.23;1.60;;;10.30;99.90;;;;;;4981533;28;20457;-87
2023/01/13 13:55:04;;;;;;;5.87;1.50;;;10.30;99.90;;;;;;4980394;28;20461;-87
2023/01/13 13:57:37;;;;;;;5.43;2.17;;;10.30;99.90;;;;;;5005237;28;20529;-88
2023/01/13 14:00:23;;;;;;;6.47;2.17;;;10.30;99.90;;;;;;4958213;28;20623;-86
2023/01/13 14:02:57;;;;;;;7.90;2.27;;;10.30;99.90;;;;;;5001338;28;20471;-88
2023/01/13 14:05:30;;;;;;;5.43;1.67;;;10.20;99.90;;;;;;4994425;28;20483;-86
2023/01/13 14:08:12;;;;;;;7.30;2.90;;;10.30;99.90;;;;;;5002095;28;20858;-87
2023/01/13 14:10:40;;;;;;;6.67;2.50;;;10.30;99.90;;;;;;4993346;28;20471;-87
2023/01/13 14:13:23;;;;;;;8.50;2.10;;;10.30;99.90;;;;;;4975075;28;20961;-89
2023/01/13 14:16:02;;;;;;;8.97;2.30;;;10.30;99.90;;;;;;4985085;28;20471;-87
2023/01/13 14:18:33;;;;;;;9.47;1.90;;;10.40;99.90;;;;;;4995251;28;20459;-89
2023/01/13 14:21:30;;;;;;;4.37;2.30;;;10.40;99.90;;;;;;5009452;28;20486;-88
2023/01/13 14:24:09;;;;;;;8.50;2.40;;;10.40;99.90;;;;;;4973555;28;20536;-87
2023/01/13 14:26:36;;;;;;;9.67;1.83;;;10.60;99.90;;;;;;4974418;28;20516;-88
2023/01/13 14:29:03;;;;;;;5.73;1.80;;;10.60;99.90;;;;;;4993346;28;20491;-87
2023/01/13 14:31:31;;;;;;;6.23;1.97;;;10.50;99.90;;;;;;4990819;28;20467;-88
2023/01/13 14:34:02;;;;;;;10.57;2.27;;;10.60;99.90;;;;;;4987952;28;20541;-89
2023/01/13 14:36:40;;;;;;;5.23;1.60;;;10.60;99.90;;;;;;4975024;28;20483;-86
2023/01/13 14:39:09;;;;;;;8.13;1.97;;;10.50;99.90;;;;;;4985590;28;20507;-87
2023/01/13 14:41:51;;;;;;;5.47;2.20;;;10.50;99.90;;;;;;4981815;28;20447;-88
2023/01/13 14:44:28;;;;;;;8.03;2.20;;;10.50;99.90;;;;;;4967868;28;20460;-86
2023/01/13 14:46:59;;;;;;;7.43;1.67;;;10.50;99.90;;;;;;4990049;28;20656;-86
2023/01/13 14:49:50;;;;;;;5.10;1.70;;;10.50;99.90;;;;;;4981555;28;21235;-85
2023/01/13 14:52:23;;;;;;;6.57;2.33;;;10.50;99.90;;;;;;4960501;28;20520;-86
2023/01/13 14:54:53;;;;;;;8.93;2.10;;;10.50;99.90;;;;;;4970186;28;20454;-86
2023/01/13 14:57:30;;;;;;;8.30;2.53;;;10.50;99.90;;;;;;4975758;28;20489;-87
2023/01/13 15:00:05;;;;;;;5.40;1.70;;;10.50;99.90;;;;;;4992444;28;20467;-88
2023/01/13 15:02:37;;;;;;;4.23;2.03;;;10.50;99.90;;;;;;4978843;28;20457;-87
2023/01/13 15:05:25;;;;;;;4.80;2.30;;;10.50;99.90;;;;;;4978322;28;20477;-88
2023/01/13 15:07:58;;;;;;;7.17;1.90;;;10.50;99.90;;;;;;4973096;28;20497;-88
2023/01/13 15:10:44;;;;;;;10.37;2.77;;;10.50;99.90;;;;;;4975088;28;20461;-88
2023/01/13 15:13:23;;;;;;;7.40;1.90;;;10.50;99.90;;;;;;4979684;28;20466;-89
2023/01/13 15:15:57;;;;;;;9.13;2.77;;;10.50;99.90;;;;;;4998755;28;20493;-89